Catalina, Arizona
Current Conditions -  °F | °C
As of 4:58 AM on Tuesday 21 Oct 2014 (Local Time) from KDMA Reporting Station
Clear Clear  
Wind Chill: 64°   Ceiling: Unl
Heat Index: 64°   Visibility: 10mi
Dew Point: 49°   Wind: 9mph
Humidity: 60%   Direction: 80°E
Pressure: 29.93"   Gusts: NA
Location:  32.48°N, 110.9°W
Report Text: KDMA 211158Z AUTO 08008KT 10SM CLR 18/10 A2993 RMK AO2 SLPNO T01750097 10199 20167 57002 $
Loading
Personal Weather Stations






























Interactive Weather Map
Tropical Storm Tracking
New forecast layout! Learn more

10-Day Weather Forecast

Advertisements
Track Severe Weather on mobile